Time;durP1;ratioP1;P1;durP2;ratioP2;P2;SDS_P1;SDS_P2;PMS_P1;PMS_P2;Temp;Humidity;BMP_temperature;BMP_pressure;BME280_temperature;BME280_humidity;BME280_pressure;Samples;Min_cycle;Max_cycle;Signal;HPM_P1;HPM_P2
2022/11/20 00:01:21;;;;;;;5.70;4.97;;;4.90;99.90;;;;;;4972978;28;20544;-67
2022/11/20 00:03:48;;;;;;;8.13;5.45;;;4.90;99.90;;;;;;4971649;28;20103;-68
2022/11/20 00:06:16;;;;;;;;;;;4.90;99.90;;;;;;4972317;28;20575;-68
2022/11/20 00:08:42;;;;;;;5.45;4.45;;;4.90;99.90;;;;;;4972520;28;20959;-68
2022/11/20 00:11:14;;;;;;;;;;;4.90;99.90;;;;;;4973415;28;20051;-65
2022/11/20 00:13:46;;;;;;;8.88;4.93;;;4.90;99.90;;;;;;4969356;28;20447;-68
2022/11/20 00:16:15;;;;;;;6.07;5.10;;;4.90;99.90;;;;;;4973198;28;20127;-68
2022/11/20 00:18:42;;;;;;;8.27;5.05;;;4.80;99.90;;;;;;4975706;28;20050;-66
2022/11/20 00:21:13;;;;;;;;;;;4.90;99.90;;;;;;4979629;28;20057;-69
2022/11/20 00:23:41;;;;;;;6.85;5.13;;;4.80;99.90;;;;;;4976912;28;20480;-67
2022/11/20 00:26:10;;;;;;;9.85;5.05;;;4.80;99.90;;;;;;4976235;28;20129;-66
2022/11/20 00:28:37;;;;;;;11.02;5.45;;;4.80;99.90;;;;;;4976152;28;20050;-67
2022/11/20 00:31:05;;;;;;;;;;;4.80;99.90;;;;;;4962123;28;20042;-66
2022/11/20 00:33:33;;;;;;;10.00;4.40;;;4.80;99.90;;;;;;4975316;28;20053;-66
2022/11/20 00:36:05;;;;;;;7.43;4.60;;;4.80;99.90;;;;;;4974668;28;20049;-67
2022/11/20 00:38:32;;;;;;;6.28;4.35;;;4.80;99.90;;;;;;4977067;28;20044;-68
2022/11/20 00:41:04;;;;;;;5.47;4.63;;;4.70;99.90;;;;;;4976434;28;20350;-67
2022/11/20 00:43:31;;;;;;;5.45;4.22;;;4.70;99.90;;;;;;4977162;28;20229;-67
2022/11/20 00:45:58;;;;;;;;;;;4.70;99.90;;;;;;4976991;28;20045;-67
2022/11/20 00:48:25;;;;;;;5.68;4.07;;;4.70;99.90;;;;;;4974375;28;19925;-67
2022/11/20 00:50:53;;;;;;;5.25;4.60;;;4.70;99.90;;;;;;4978642;28;20042;-67
2022/11/20 00:53:20;;;;;;;4.10;3.67;;;4.70;99.90;;;;;;4977689;28;20065;-67
2022/11/20 00:55:54;;;;;;;4.60;3.88;;;4.60;99.90;;;;;;4972194;28;20050;-66
2022/11/20 00:58:22;;;;;;;4.85;3.67;;;4.60;99.90;;;;;;4978331;28;20042;-66
2022/11/20 01:00:49;;;;;;;8.02;4.00;;;4.60;99.90;;;;;;4974922;28;20045;-67
2022/11/20 01:03:18;;;;;;;6.50;3.97;;;4.60;99.90;;;;;;4976498;28;20111;-67
2022/11/20 01:05:52;;;;;;;5.10;4.00;;;4.60;99.90;;;;;;4976145;28;20053;-67
2022/11/20 01:08:19;;;;;;;6.38;4.43;;;4.60;99.90;;;;;;4956737;28;20569;-67
2022/11/20 01:10:45;;;;;;;;;;;4.60;99.90;;;;;;4975860;28;20067;-67
2022/11/20 01:16:05;;;;;;;5.50;4.68;;;4.60;99.90;;;;;;4972679;28;20050;-66
2022/11/20 01:18:32;;;;;;;7.65;5.00;;;4.60;99.90;;;;;;4973047;28;20066;-67
2022/11/20 01:21:26;;;;;;;7.70;5.28;;;4.60;99.90;;;;;;4963828;28;20037;-65
2022/11/20 01:23:53;;;;;;;10.10;5.25;;;4.60;99.90;;;;;;4974354;28;20062;-67
2022/11/20 01:26:23;;;;;;;9.63;5.18;;;4.60;99.90;;;;;;4974480;28;20050;-67
2022/11/20 01:28:51;;;;;;;9.50;4.75;;;4.60;99.90;;;;;;4977246;28;20045;-67
2022/11/20 01:31:23;;;;;;;6.35;5.28;;;4.60;99.90;;;;;;4973774;28;20052;-67
2022/11/20 01:33:52;;;;;;;6.43;4.68;;;4.60;99.90;;;;;;4974225;28;20100;-67
2022/11/20 01:36:21;;;;;;;7.50;5.40;;;4.60;99.90;;;;;;4978741;28;20046;-66
2022/11/20 01:38:50;;;;;;;8.23;5.25;;;4.60;99.90;;;;;;4967066;28;20050;-66
2022/11/20 01:44:04;;;;;;;5.32;4.28;;;4.60;99.90;;;;;;4972080;28;20647;-65
2022/11/20 01:46:33;;;;;;;5.07;3.97;;;4.60;99.90;;;;;;4967178;28;20052;-66
2022/11/20 01:49:15;;;;;;;6.72;4.47;;;4.60;99.90;;;;;;4972100;28;20044;-67
2022/11/20 01:51:48;;;;;;;8.23;5.55;;;4.50;99.90;;;;;;4972471;28;20051;-67
2022/11/20 01:54:19;;;;;;;11.60;5.28;;;4.50;99.90;;;;;;4972678;28;20598;-67
2022/11/20 01:56:50;;;;;;;8.77;5.55;;;4.40;99.90;;;;;;4974680;28;20038;-67
2022/11/20 01:59:18;;;;;;;8.73;4.35;;;4.40;99.90;;;;;;4966976;28;20053;-67
2022/11/20 02:01:46;;;;;;;8.30;5.28;;;4.30;99.90;;;;;;4976077;28;20112;-65
2022/11/20 02:04:14;;;;;;;10.52;5.22;;;4.30;99.90;;;;;;4975243;28;20547;-66
2022/11/20 02:06:58;;;;;;;4.50;4.05;;;4.20;99.90;;;;;;4976033;28;20323;-66
2022/11/20 02:09:25;;;;;;;6.47;5.40;;;4.20;99.90;;;;;;4974200;28;20193;-67
2022/11/20 02:11:53;;;;;;;7.80;4.72;;;4.10;99.90;;;;;;4973731;28;20173;-68
2022/11/20 02:14:22;;;;;;;11.77;5.68;;;4.00;99.90;;;;;;4976633;28;20050;-67
2022/11/20 02:16:49;;;;;;;6.55;4.85;;;4.00;99.90;;;;;;4975132;28;20050;-67
2022/11/20 02:19:31;;;;;;;5.60;4.88;;;3.90;99.90;;;;;;4970785;28;20046;-66
2022/11/20 02:22:26;;;;;;;6.28;5.05;;;3.80;99.90;;;;;;4959313;28;20050;-67
2022/11/20 02:24:52;;;;;;;6.40;4.65;;;3.80;99.90;;;;;;4976584;28;20520;-68
2022/11/20 02:27:20;;;;;;;;;;;3.70;99.90;;;;;;4978536;28;20070;-67
2022/11/20 02:29:54;;;;;;;9.43;5.72;;;3.70;99.90;;;;;;4975924;28;19925;-68
2022/11/20 02:32:25;;;;;;;10.73;5.82;;;3.70;99.90;;;;;;4977289;28;20411;-67
2022/11/20 02:34:52;;;;;;;8.18;5.30;;;3.60;99.90;;;;;;4973458;28;20149;-67
2022/11/20 02:37:19;;;;;;;8.95;5.22;;;3.60;99.90;;;;;;4975737;28;20079;-68
2022/11/20 02:39:49;;;;;;;7.28;5.65;;;3.60;99.90;;;;;;4973021;28;20060;-67
2022/11/20 02:42:16;;;;;;;8.82;5.47;;;3.60;99.90;;;;;;4974273;28;20038;-68
2022/11/20 02:44:43;;;;;;;7.63;4.95;;;3.60;99.90;;;;;;4975307;28;20076;-68
2022/11/20 02:47:10;;;;;;;7.30;5.30;;;3.60;99.90;;;;;;4976967;28;20049;-67
2022/11/20 02:49:37;;;;;;;6.18;4.80;;;3.60;99.90;;;;;;4974140;28;20037;-67
2022/11/20 02:52:03;;;;;;;;;;;3.60;99.90;;;;;;4974982;28;20054;-67
2022/11/20 02:54:30;;;;;;;9.77;5.78;;;3.60;99.90;;;;;;4976329;28;19925;-68
2022/11/20 02:56:57;;;;;;;7.70;4.75;;;3.60;99.90;;;;;;4975616;28;20097;-67
2022/11/20 02:59:24;;;;;;;7.35;5.53;;;3.60;99.90;;;;;;4971670;28;20049;-66
2022/11/20 03:01:50;;;;;;;6.25;4.93;;;3.60;99.90;;;;;;4975843;28;20061;-68
2022/11/20 03:04:17;;;;;;;;;;;3.60;99.90;;;;;;4976635;28;20069;-67
2022/11/20 03:06:44;;;;;;;6.35;5.00;;;3.70;99.90;;;;;;4973469;28;19926;-68
2022/11/20 03:09:11;;;;;;;8.43;6.50;;;3.70;99.90;;;;;;4962320;28;20144;-67
2022/11/20 03:11:37;;;;;;;5.53;4.80;;;3.70;99.90;;;;;;4955906;28;20571;-67
2022/11/20 03:14:04;;;;;;;;;;;3.70;99.90;;;;;;4976780;28;20093;-67
2022/11/20 03:16:32;;;;;;;8.73;5.55;;;3.70;99.90;;;;;;4972725;28;19960;-67
2022/11/20 03:18:59;;;;;;;10.38;5.82;;;3.80;99.90;;;;;;4972659;28;20050;-66
2022/11/20 03:21:26;;;;;;;6.60;4.85;;;3.80;99.90;;;;;;4971772;28;20044;-67
2022/11/20 03:23:53;;;;;;;8.82;5.43;;;3.90;99.90;;;;;;4973111;28;20801;-67
2022/11/20 03:26:24;;;;;;;6.03;5.00;;;3.90;99.90;;;;;;4975782;28;20141;-67
2022/11/20 03:28:55;;;;;;;6.45;4.70;;;3.90;99.90;;;;;;4973454;28;20073;-67
2022/11/20 03:31:25;;;;;;;6.97;4.25;;;4.00;99.90;;;;;;4972731;28;20662;-67
2022/11/20 03:33:52;;;;;;;7.15;5.93;;;4.00;99.90;;;;;;4973410;28;20050;-67
2022/11/20 03:36:20;;;;;;;6.30;4.93;;;4.00;99.90;;;;;;4972097;28;20044;-66
2022/11/20 03:38:48;;;;;;;4.47;3.95;;;4.00;99.90;;;;;;4973982;28;20172;-67
2022/11/20 03:41:18;;;;;;;6.55;4.50;;;4.00;99.90;;;;;;4974147;28;20125;-67
2022/11/20 03:43:53;;;;;;;9.80;5.03;;;4.00;99.90;;;;;;4977697;28;20903;-67
2022/11/20 03:46:21;;;;;;;7.47;5.43;;;4.00;99.90;;;;;;4972441;28;20077;-66
2022/11/20 03:48:48;;;;;;;6.97;4.60;;;4.00;99.90;;;;;;4973189;28;20050;-67
2022/11/20 03:51:29;;;;;;;10.02;4.93;;;4.00;99.90;;;;;;4954152;28;20049;-68
2022/11/20 03:53:58;;;;;;;8.45;4.60;;;4.10;99.90;;;;;;4970215;28;20047;-68
2022/11/20 03:56:28;;;;;;;7.30;5.30;;;4.10;99.90;;;;;;4974085;28;20042;-68
2022/11/20 03:58:55;;;;;;;8.55;4.47;;;4.20;99.90;;;;;;4972652;28;20069;-66
2022/11/20 04:01:28;;;;;;;6.03;4.50;;;4.20;99.90;;;;;;4957470;28;20279;-67
2022/11/20 04:03:56;;;;;;;8.00;5.10;;;4.20;99.90;;;;;;4973209;28;20049;-66
2022/11/20 04:06:35;;;;;;;8.63;6.07;;;4.20;99.90;;;;;;4964141;28;20046;-67
2022/11/20 04:09:02;;;;;;;7.07;5.00;;;4.20;99.90;;;;;;4974906;28;20140;-68
2022/11/20 04:11:32;;;;;;;9.35;4.78;;;4.10;99.90;;;;;;4972737;28;20046;-67
2022/11/20 04:14:00;;;;;;;7.55;5.35;;;4.10;99.90;;;;;;4972193;28;20141;-66
2022/11/20 04:16:31;;;;;;;7.32;4.78;;;4.10;99.90;;;;;;4970227;28;20041;-67
2022/11/20 04:18:59;;;;;;;7.18;5.20;;;4.00;99.90;;;;;;4953165;28;20052;-67
2022/11/20 04:21:27;;;;;;;9.32;5.03;;;4.00;99.90;;;;;;4973205;28;20373;-67
2022/11/20 04:23:55;;;;;;;7.32;5.13;;;4.00;99.90;;;;;;4972751;28;20038;-67
2022/11/20 04:26:24;;;;;;;9.23;4.90;;;3.90;99.90;;;;;;4974651;28;20125;-65
2022/11/20 04:28:51;;;;;;;8.57;5.28;;;3.80;99.90;;;;;;4973228;28;20057;-67
2022/11/20 04:31:21;;;;;;;6.15;5.03;;;3.80;99.90;;;;;;4972282;28;20603;-68
2022/11/20 04:33:47;;;;;;;8.60;4.90;;;3.70;99.90;;;;;;4970738;28;20607;-66
2022/11/20 04:36:23;;;;;;;10.32;5.07;;;3.70;99.90;;;;;;4970328;28;20050;-67
2022/11/20 04:39:01;;;;;;;8.18;5.45;;;3.60;99.90;;;;;;4970780;28;20061;-66
2022/11/20 04:41:32;;;;;;;10.43;5.05;;;3.60;99.90;;;;;;4974886;28;20034;-67
2022/11/20 04:44:02;;;;;;;8.27;5.00;;;3.50;99.90;;;;;;4970700;28;20046;-66
2022/11/20 04:46:32;;;;;;;7.60;5.38;;;3.50;99.90;;;;;;4970826;28;20046;-66
2022/11/20 04:48:59;;;;;;;7.53;5.38;;;3.40;99.90;;;;;;4973737;28;20070;-66
2022/11/20 04:51:26;;;;;;;7.75;5.53;;;3.40;99.90;;;;;;4969455;28;20057;-67
2022/11/20 04:53:53;;;;;;;8.73;6.00;;;3.40;99.90;;;;;;4969697;28;20042;-65
2022/11/20 04:56:20;;;;;;;6.15;4.38;;;3.40;99.90;;;;;;4973394;28;20053;-66
2022/11/20 04:58:47;;;;;;;10.07;5.65;;;3.40;99.90;;;;;;4971072;28;20050;-65
2022/11/20 05:01:18;;;;;;;;;;;3.40;99.90;;;;;;4971954;28;20057;-65
2022/11/20 05:03:45;;;;;;;6.57;4.03;;;3.30;99.90;;;;;;4976116;28;20006;-65
2022/11/20 05:06:15;;;;;;;5.95;4.75;;;3.40;99.90;;;;;;4975979;28;20053;-67
2022/11/20 05:08:42;;;;;;;5.97;4.68;;;3.40;99.90;;;;;;4977398;28;20845;-66
2022/11/20 05:11:20;;;;;;;7.03;4.55;;;3.40;99.90;;;;;;4975492;28;20054;-65
2022/11/20 05:13:49;;;;;;;10.25;5.68;;;3.40;99.90;;;;;;4960321;28;20125;-66
2022/11/20 05:16:23;;;;;;;5.65;4.63;;;3.30;99.90;;;;;;4977516;28;20050;-67
2022/11/20 05:18:52;;;;;;;5.72;4.95;;;3.30;99.90;;;;;;4976596;28;20053;-65
2022/11/20 05:21:19;;;;;;;8.07;5.68;;;3.30;99.90;;;;;;4975679;28;20049;-67
2022/11/20 05:23:46;;;;;;;;;;;3.30;99.90;;;;;;4975704;28;20117;-66
2022/11/20 05:26:16;;;;;;;7.55;5.32;;;3.30;99.90;;;;;;4972772;28;19933;-67
2022/11/20 05:28:43;;;;;;;8.65;5.65;;;3.20;99.90;;;;;;4977352;28;20077;-66
2022/11/20 05:31:12;;;;;;;5.90;4.10;;;3.20;99.90;;;;;;4975319;28;20070;-66
2022/11/20 05:33:44;;;;;;;6.65;5.05;;;3.30;99.90;;;;;;4973637;28;20647;-66
2022/11/20 05:36:13;;;;;;;8.77;4.65;;;3.20;99.90;;;;;;4976094;28;20149;-65
2022/11/20 05:38:40;;;;;;;7.47;4.70;;;3.20;99.90;;;;;;4976410;28;20047;-66
2022/11/20 05:41:16;;;;;;;6.18;4.63;;;3.20;99.90;;;;;;4977392;28;20046;-64
2022/11/20 05:43:44;;;;;;;5.25;4.57;;;3.20;99.90;;;;;;4977739;28;20043;-66
2022/11/20 05:46:14;;;;;;;5.55;4.40;;;3.20;99.90;;;;;;4976079;28;20046;-65
2022/11/20 05:48:42;;;;;;;9.02;4.80;;;3.20;99.90;;;;;;4958062;28;20659;-65
2022/11/20 05:51:11;;;;;;;5.68;4.82;;;3.20;99.90;;;;;;4973511;28;20038;-66
2022/11/20 05:53:38;;;;;;;12.40;6.10;;;3.10;99.90;;;;;;4973013;28;20049;-66
2022/11/20 05:56:15;;;;;;;11.40;6.65;;;3.20;99.90;;;;;;4977979;28;20308;-65
2022/11/20 05:58:42;;;;;;;11.18;5.40;;;3.10;99.90;;;;;;4976573;28;20046;-66
2022/11/20 06:01:12;;;;;;;8.75;5.50;;;3.10;99.90;;;;;;4975524;28;20092;-64
2022/11/20 06:03:40;;;;;;;7.75;5.53;;;3.10;99.90;;;;;;4974765;28;20042;-66
2022/11/20 06:06:07;;;;;;;15.10;6.30;;;3.10;99.90;;;;;;4977002;28;20141;-67
2022/11/20 06:08:34;;;;;;;;;;;3.10;99.90;;;;;;4975497;28;20061;-66
2022/11/20 06:11:08;;;;;;;9.68;5.93;;;3.10;99.90;;;;;;4975738;28;19931;-65
2022/11/20 06:13:35;;;;;;;15.00;5.03;;;3.10;99.90;;;;;;4976892;28;20054;-66
2022/11/20 06:16:08;;;;;;;11.10;4.88;;;3.10;99.90;;;;;;4976481;28;20858;-65
2022/11/20 06:18:35;;;;;;;6.15;4.93;;;3.10;99.90;;;;;;4976019;28;20312;-66
2022/11/20 06:21:14;;;;;;;12.52;5.53;;;3.10;99.90;;;;;;4970639;28;20081;-66
2022/11/20 06:23:41;;;;;;;7.55;4.65;;;3.10;99.90;;;;;;4973176;28;20124;-66
2022/11/20 06:26:10;;;;;;;4.80;3.97;;;3.10;99.90;;;;;;4976117;28;20071;-66
2022/11/20 06:28:37;;;;;;;4.75;4.25;;;3.20;99.90;;;;;;4974457;28;20049;-66
2022/11/20 06:31:05;;;;;;;5.28;4.25;;;3.20;99.90;;;;;;4977763;28;20112;-66
2022/11/20 06:33:32;;;;;;;6.63;4.60;;;3.20;99.90;;;;;;4973139;28;20042;-66
2022/11/20 06:36:00;;;;;;;8.45;3.97;;;3.20;99.90;;;;;;4978693;28;20399;-66
2022/11/20 06:38:33;;;;;;;9.73;3.90;;;3.20;99.90;;;;;;4973289;28;20049;-66
2022/11/20 06:40:59;;;;;;;;;;;3.20;99.90;;;;;;4973774;28;20048;-66
2022/11/20 06:43:28;;;;;;;6.28;4.40;;;3.30;99.90;;;;;;4974108;28;20387;-67
2022/11/20 06:45:56;;;;;;;6.22;4.38;;;3.30;99.90;;;;;;4975812;28;20532;-67
2022/11/20 06:48:24;;;;;;;4.55;3.95;;;3.30;99.90;;;;;;4978376;28;20092;-67
2022/11/20 06:50:51;;;;;;;6.80;4.72;;;3.30;99.90;;;;;;4974224;28;20135;-66
2022/11/20 06:53:17;;;;;;;5.57;4.13;;;3.40;99.90;;;;;;4971113;28;20074;-66
2022/11/20 06:55:45;;;;;;;;;;;3.40;99.90;;;;;;4974736;28;20046;-67
2022/11/20 06:58:13;;;;;;;4.82;4.32;;;3.40;99.90;;;;;;4971351;28;19948;-67
2022/11/20 07:00:41;;;;;;;5.72;4.40;;;3.40;99.90;;;;;;4974885;28;20530;-55
2022/11/20 07:03:10;;;;;;;5.47;4.32;;;3.40;99.90;;;;;;4975689;28;20041;-56
2022/11/20 07:05:38;;;;;;;4.47;3.85;;;3.40;99.90;;;;;;4975101;28;20049;-56
2022/11/20 07:08:05;;;;;;;5.78;4.50;;;3.50;99.90;;;;;;4973028;28;20045;-55
2022/11/20 07:10:32;;;;;;;6.40;4.50;;;3.50;99.90;;;;;;4970555;28;20065;-54
2022/11/20 07:12:59;;;;;;;10.32;4.53;;;3.50;99.90;;;;;;4974537;28;20539;-54
2022/11/20 07:15:26;;;;;;;5.82;4.45;;;3.60;99.90;;;;;;4974077;28;20045;-54
2022/11/20 07:17:53;;;;;;;4.82;3.92;;;3.70;99.90;;;;;;4955382;28;20042;-54
2022/11/20 07:20:19;;;;;;;;;;;3.70;99.90;;;;;;4974354;28;20523;-54
2022/11/20 07:22:46;;;;;;;4.97;4.38;;;3.70;99.90;;;;;;4973338;28;19925;-55
2022/11/20 07:25:13;;;;;;;6.80;4.53;;;3.80;99.90;;;;;;4972035;28;20589;-55
2022/11/20 07:27:39;;;;;;;7.47;4.63;;;3.80;99.90;;;;;;4972380;28;20052;-55
2022/11/20 07:30:06;;;;;;;5.80;4.13;;;3.80;99.90;;;;;;4978622;28;20056;-55
2022/11/20 07:32:33;;;;;;;8.93;4.95;;;3.90;99.90;;;;;;4973552;28;20544;-55
2022/11/20 07:35:00;;;;;;;;;;;4.00;99.90;;;;;;4975733;28;20125;-54
2022/11/20 07:37:26;;;;;;;7.30;5.45;;;4.00;99.90;;;;;;4956672;28;20036;-55
2022/11/20 07:39:53;;;;;;;9.25;4.75;;;4.10;99.90;;;;;;4972877;28;20049;-50
2022/11/20 07:42:20;;;;;;;5.53;4.72;;;4.20;99.90;;;;;;4952872;28;20157;-67
2022/11/20 07:44:50;;;;;;;5.40;4.70;;;4.20;99.90;;;;;;4972794;28;20537;-59
2022/11/20 07:47:16;;;;;;;6.35;4.80;;;4.30;99.90;;;;;;4971914;28;20049;-52
2022/11/20 07:49:44;;;;;;;9.77;5.05;;;4.30;99.90;;;;;;4976135;28;20049;-52
2022/11/20 07:52:11;;;;;;;6.72;4.60;;;4.40;99.90;;;;;;4955726;28;20056;-52
2022/11/20 07:54:37;;;;;;;5.47;4.70;;;4.50;99.90;;;;;;4968434;28;20117;-51
2022/11/20 07:57:04;;;;;;;;;;;4.60;99.90;;;;;;4974615;28;20137;-52
2022/11/20 07:59:31;;;;;;;8.70;4.72;;;4.60;99.90;;;;;;4971602;28;19933;-52
2022/11/20 08:01:57;;;;;;;;;;;4.70;99.90;;;;;;4974058;28;20045;-52
2022/11/20 08:04:24;;;;;;;8.13;5.30;;;4.90;99.90;;;;;;4971351;28;20020;-53
2022/11/20 08:06:54;;;;;;;;;;;5.00;99.90;;;;;;4972511;28;20132;-51
2022/11/20 08:09:21;;;;;;;9.50;4.80;;;5.20;99.90;;;;;;4972139;28;20536;-50
2022/11/20 08:14:33;;;;;;;5.93;3.78;;;5.40;99.90;;;;;;4970568;28;20604;-50
2022/11/20 08:17:00;;;;;;;8.38;4.35;;;5.50;99.90;;;;;;4972540;28;20052;-53
2022/11/20 08:19:27;;;;;;;;;;;5.60;99.90;;;;;;4973452;28;20050;-52
2022/11/20 08:21:54;;;;;;;5.90;3.60;;;5.60;99.90;;;;;;4973093;28;19937;-50
2022/11/20 08:24:21;;;;;;;4.93;3.10;;;5.70;99.90;;;;;;4968973;28;20276;-53
2022/11/20 08:26:48;;;;;;;4.88;3.25;;;5.70;99.90;;;;;;4959844;28;20078;-54
2022/11/20 08:29:14;;;;;;;4.53;2.80;;;5.70;99.90;;;;;;4974146;28;20057;-52
2022/11/20 08:31:41;;;;;;;5.50;3.33;;;5.70;99.90;;;;;;4972206;28;20057;-52
2022/11/20 08:34:08;;;;;;;;;;;5.70;99.90;;;;;;4974521;28;20610;-50
2022/11/20 08:36:36;;;;;;;3.97;2.85;;;5.70;99.90;;;;;;4973762;28;19925;-53
2022/11/20 08:39:03;;;;;;;3.10;2.75;;;5.70;99.90;;;;;;4972841;28;20077;-49
2022/11/20 08:41:32;;;;;;;4.03;2.50;;;5.80;99.90;;;;;;4977027;28;20050;-49
2022/11/20 08:44:02;;;;;;;4.63;2.30;;;6.20;99.90;;;;;;4975871;28;20065;-50
2022/11/20 08:46:37;;;;;;;8.02;2.72;;;6.70;99.90;;;;;;4977881;28;20052;-56
2022/11/20 08:49:05;;;;;;;3.85;2.53;;;7.20;99.90;;;;;;4975878;28;20154;-52
2022/11/20 08:51:33;;;;;;;4.80;1.98;;;7.80;99.90;;;;;;4975224;28;20875;-51
2022/11/20 08:54:00;;;;;;;2.33;2.13;;;8.10;99.90;;;;;;4977120;28;20294;-52
2022/11/20 08:56:26;;;;;;;2.55;1.95;;;8.10;99.90;;;;;;4976553;28;20041;-54
2022/11/20 08:58:53;;;;;;;;;;;8.10;99.90;;;;;;4980059;28;20042;-52
2022/11/20 09:01:40;;;;;;;2.08;1.77;;;8.00;99.90;;;;;;4974609;28;20044;-56
2022/11/20 09:04:07;;;;;;;4.30;1.88;;;7.70;99.90;;;;;;4959126;28;20050;-52
2022/11/20 09:06:33;;;;;;;5.13;2.35;;;7.50;99.90;;;;;;4976014;28;20049;-54
2022/11/20 09:09:00;;;;;;;5.10;2.03;;;7.30;99.90;;;;;;4976556;28;20054;-56
2022/11/20 09:11:32;;;;;;;3.20;1.83;;;7.20;99.90;;;;;;4975298;28;20047;-53
2022/11/20 09:13:59;;;;;;;3.00;1.77;;;7.20;99.90;;;;;;4973828;28;20044;-54
2022/11/20 09:16:26;;;;;;;4.13;1.70;;;7.50;99.90;;;;;;4976729;28;20129;-54
2022/11/20 09:18:53;;;;;;;4.47;1.50;;;8.00;99.90;;;;;;4974238;28;20050;-55
2022/11/20 09:21:40;;;;;;;2.63;1.55;;;8.40;99.90;;;;;;4978477;28;20046;-56
2022/11/20 09:24:06;;;;;;;2.10;1.35;;;8.90;99.90;;;;;;4974562;28;20053;-54
2022/11/20 09:26:33;;;;;;;2.08;1.77;;;9.30;99.90;;;;;;4976189;28;20046;-54
2022/11/20 09:29:00;;;;;;;5.93;1.67;;;9.60;99.90;;;;;;4975976;28;20050;-55
2022/11/20 09:31:26;;;;;;;;;;;9.90;99.90;;;;;;4977409;28;20119;-52
2022/11/20 09:33:53;;;;;;;2.60;1.60;;;10.20;99.90;;;;;;4977207;28;20832;-53
2022/11/20 09:36:20;;;;;;;1.30;1.00;;;10.20;99.90;;;;;;4976005;28;20124;-53
2022/11/20 09:38:47;;;;;;;1.73;1.30;;;10.00;99.90;;;;;;4974479;28;20310;-53
2022/11/20 09:41:37;;;;;;;6.00;1.25;;;9.70;99.90;;;;;;4976626;28;20030;-53
2022/11/20 09:44:38;;;;;;;1.10;1.00;;;9.30;99.90;;;;;;4941574;28;20101;-50
2022/11/20 09:47:16;;;;;;;2.17;1.25;;;9.10;99.90;;;;;;4973740;28;20050;-52
2022/11/20 09:50:01;;;;;;;1.50;1.13;;;8.80;99.90;;;;;;4976391;28;20054;-52
2022/11/20 09:52:51;;;;;;;1.40;0.98;;;9.00;99.90;;;;;;4973374;28;20049;-53
2022/11/20 09:55:18;;;;;;;2.00;0.85;;;9.30;99.90;;;;;;4974684;28;20042;-52
2022/11/20 09:57:48;;;;;;;1.70;0.93;;;9.60;99.90;;;;;;4972870;28;20420;-53
2022/11/20 10:00:15;;;;;;;1.77;1.17;;;9.60;99.90;;;;;;4978450;28;20158;-54
2022/11/20 10:02:47;;;;;;;1.20;1.08;;;9.50;99.90;;;;;;4976714;28;20049;-58
2022/11/20 10:05:40;;;;;;;2.00;1.10;;;9.10;99.90;;;;;;4971352;28;20143;-53
2022/11/20 10:08:22;;;;;;;4.45;1.67;;;8.80;99.90;;;;;;4973501;28;20827;-53
2022/11/20 10:10:52;;;;;;;8.90;4.40;;;8.50;99.90;;;;;;4973392;28;20046;-51
2022/11/20 10:13:57;;;;;;;6.30;2.45;;;8.20;99.90;;;;;;4974490;28;20061;-52
2022/11/20 10:16:23;;;;;;;2.80;1.63;;;7.90;99.90;;;;;;4974875;28;20550;-53
2022/11/20 10:18:53;;;;;;;;;;;7.80;99.90;;;;;;4974278;28;20043;-53
2022/11/20 10:21:35;;;;;;;2.30;1.10;;;7.70;99.90;;;;;;4973247;28;19972;-52
2022/11/20 10:24:21;;;;;;;8.88;2.38;;;7.60;99.90;;;;;;4972559;28;20040;-54
2022/11/20 10:27:41;;;;;;;6.40;1.63;;;7.50;99.90;;;;;;4954973;28;20110;-53
2022/11/20 10:30:13;;;;;;;2.60;1.52;;;7.40;99.90;;;;;;4935915;28;20058;-52
2022/11/20 10:32:48;;;;;;;3.00;1.40;;;7.40;99.90;;;;;;4977039;28;20038;-51
2022/11/20 10:35:32;;;;;;;3.42;1.17;;;7.30;99.90;;;;;;4970325;28;20142;-56
2022/11/20 10:38:01;;;;;;;3.13;1.40;;;7.20;99.90;;;;;;4972030;28;20774;-51
2022/11/20 10:40:46;;;;;;;1.13;1.02;;;7.20;99.90;;;;;;4970342;28;20695;-52
2022/11/20 10:43:32;;;;;;;1.88;1.73;;;7.00;99.90;;;;;;4974463;28;20133;-55
2022/11/20 10:46:04;;;;;;;1.00;1.00;;;6.90;99.90;;;;;;4975652;28;20096;-51
2022/11/20 10:48:32;;;;;;;1.83;1.30;;;6.80;99.90;;;;;;4970874;28;20053;-52
2022/11/20 10:51:18;;;;;;;1.83;1.27;;;6.80;99.90;;;;;;4973857;28;20152;-52
2022/11/20 10:53:49;;;;;;;1.48;1.20;;;7.10;99.90;;;;;;4972964;28;20151;-52
2022/11/20 10:56:25;;;;;;;1.08;0.80;;;7.60;99.90;;;;;;4972778;28;20474;-53
2022/11/20 10:59:33;;;;;;;4.03;1.20;;;8.10;99.90;;;;;;4971894;28;20523;-52
2022/11/20 11:02:00;;;;;;;4.28;1.25;;;8.70;99.90;;;;;;4974274;28;20047;-52
2022/11/20 11:04:39;;;;;;;3.30;1.20;;;9.10;99.90;;;;;;4975862;28;20064;-53
2022/11/20 11:07:27;;;;;;;1.27;1.08;;;9.30;99.90;;;;;;4972879;28;20050;-52
2022/11/20 11:09:54;;;;;;;;;;;9.30;99.90;;;;;;4956470;28;20051;-54
2022/11/20 11:12:26;;;;;;;1.33;0.98;;;9.10;99.90;;;;;;4973482;28;19967;-53
2022/11/20 11:14:54;;;;;;;1.88;1.05;;;8.90;99.90;;;;;;4975541;28;20042;-53
2022/11/20 11:17:33;;;;;;;1.85;1.42;;;8.70;99.90;;;;;;4974466;28;20038;-53
2022/11/20 11:20:18;;;;;;;0.93;0.93;;;8.60;99.90;;;;;;4974157;28;20575;-53
2022/11/20 11:22:52;;;;;;;1.27;0.90;;;8.40;99.90;;;;;;4961554;28;20169;-55
2022/11/20 11:25:22;;;;;;;3.38;1.08;;;8.20;99.90;;;;;;4973704;28;20125;-53
2022/11/20 11:27:50;;;;;;;1.00;0.75;;;8.10;99.90;;;;;;4976319;28;20048;-53
2022/11/20 11:30:19;;;;;;;1.27;0.90;;;8.00;99.90;;;;;;4956583;28;20056;-53
2022/11/20 11:32:46;;;;;;;1.90;0.80;;;8.00;99.90;;;;;;4974472;28;20073;-52
2022/11/20 11:35:25;;;;;;;1.88;1.10;;;7.90;99.90;;;;;;4973531;28;20209;-53
2022/11/20 11:38:07;;;;;;;0.70;0.70;;;7.80;99.90;;;;;;4958733;28;20046;-52
2022/11/20 11:40:36;;;;;;;1.15;1.02;;;7.70;99.90;;;;;;4969371;28;20043;-54
2022/11/20 11:45:04;;;;;;;1.58;1.10;;;7.60;99.90;;;;;;4969446;28;20049;-56
2022/11/20 11:45:55;;;;;;;1.70;1.13;;;7.60;99.90;;;;;;4975172;28;20089;-53
2022/11/20 11:48:22;;;;;;;2.58;1.00;;;7.60;99.90;;;;;;4971001;28;20677;-52
2022/11/20 11:50:51;;;;;;;;;;;7.60;99.90;;;;;;4973935;28;20647;-53
2022/11/20 11:53:23;;;;;;;2.35;1.30;;;7.50;99.90;;;;;;4971223;28;20020;-52
2022/11/20 11:56:04;;;;;;;1.13;1.00;;;7.50;99.90;;;;;;4973787;28;20061;-53
2022/11/20 11:58:51;;;;;;;3.50;1.02;;;7.50;99.90;;;;;;4972301;28;20085;-53
2022/11/20 12:01:47;;;;;;;3.50;1.10;;;7.40;99.90;;;;;;4973841;28;20065;-53
2022/11/20 12:04:50;;;;;;;2.80;1.10;;;7.40;99.90;;;;;;4973428;28;20547;-53
2022/11/20 12:07:30;;;;;;;0.95;0.95;;;7.50;99.90;;;;;;4974147;28;20437;-52
2022/11/20 12:10:34;;;;;;;4.32;1.23;;;7.40;99.90;;;;;;4976390;28;20058;-53
2022/11/20 12:13:14;;;;;;;1.77;1.00;;;7.40;99.90;;;;;;4972330;28;20046;-54
2022/11/20 12:15:46;;;;;;;2.03;1.10;;;7.30;99.90;;;;;;4977272;28;20695;-53
2022/11/20 12:18:19;;;;;;;1.52;0.90;;;7.30;99.90;;;;;;4958210;28;20991;-55
2022/11/20 12:21:17;;;;;;;1.30;0.95;;;7.30;99.90;;;;;;4978177;28;20042;-53
2022/11/20 12:23:56;;;;;;;0.80;0.80;;;7.20;99.90;;;;;;4963124;28;20128;-54
2022/11/20 12:26:43;;;;;;;3.13;0.85;;;7.30;99.90;;;;;;4978201;28;20139;-56
2022/11/20 12:29:10;;;;;;;4.65;3.90;;;7.50;99.90;;;;;;4969912;28;20139;-52
2022/11/20 12:31:51;;;;;;;1.55;1.38;;;7.70;99.90;;;;;;4977557;28;20796;-53
2022/11/20 12:34:30;;;;;;;1.25;0.80;;;7.90;99.90;;;;;;4978336;28;20500;-54
2022/11/20 12:37:26;;;;;;;1.00;1.00;;;8.20;99.90;;;;;;4973834;28;20104;-54
2022/11/20 12:39:58;;;;;;;1.58;1.23;;;8.30;99.90;;;;;;4975311;28;20057;-54
2022/11/20 12:45:51;;;;;;;1.30;0.80;;;8.20;99.90;;;;;;4976702;28;20061;-51
2022/11/20 12:48:38;;;;;;;1.70;1.40;;;8.10;99.90;;;;;;4976799;28;20135;-53
2022/11/20 12:51:14;;;;;;;1.23;1.00;;;8.10;99.90;;;;;;4977240;28;20494;-53
2022/11/20 12:54:27;;;;;;;1.10;1.02;;;8.20;99.90;;;;;;4978401;28;20129;-57
2022/11/20 12:57:20;;;;;;;1.60;1.10;;;8.30;99.90;;;;;;4977042;28;20159;-54
2022/11/20 12:59:46;;;;;;;2.53;1.30;;;8.30;99.90;;;;;;4950587;28;20165;-53
2022/11/20 13:02:27;;;;;;;1.63;1.52;;;8.30;99.90;;;;;;4973835;28;20056;-53
2022/11/20 13:05:12;;;;;;;1.00;0.90;;;8.30;99.90;;;;;;4976710;28;20117;-54
2022/11/20 13:07:41;;;;;;;1.48;1.25;;;8.30;99.90;;;;;;4976550;28;20577;-55
2022/11/20 13:10:32;;;;;;;1.60;1.50;;;8.30;99.90;;;;;;4975128;28;20921;-52
2022/11/20 13:13:17;;;;;;;2.10;0.90;;;8.20;99.90;;;;;;4967175;28;20958;-53
2022/11/20 13:16:09;;;;;;;0.85;0.80;;;8.10;99.90;;;;;;4976028;28;20570;-55
2022/11/20 13:18:42;;;;;;;0.80;0.80;;;7.90;99.90;;;;;;4958615;28;20501;-52
2022/11/20 13:21:35;;;;;;;2.15;1.17;;;7.80;99.90;;;;;;4967982;28;20058;-53
2022/11/20 13:24:29;;;;;;;3.05;1.00;;;7.80;99.90;;;;;;4958116;28;20037;-54
2022/11/20 13:27:12;;;;;;;3.17;0.80;;;7.90;99.90;;;;;;4972473;28;20777;-53
2022/11/20 13:29:45;;;;;;;2.47;1.13;;;8.00;99.90;;;;;;4977389;28;20070;-54
2022/11/20 13:32:20;;;;;;;1.80;0.80;;;8.20;99.90;;;;;;4976312;28;20125;-54
2022/11/20 13:35:00;;;;;;;0.75;0.75;;;8.50;99.90;;;;;;4977415;28;20104;-52
2022/11/20 13:37:36;;;;;;;2.70;1.00;;;8.70;99.90;;;;;;4975818;28;20069;-53
2022/11/20 13:40:10;;;;;;;1.63;0.90;;;9.00;99.90;;;;;;4972155;28;20050;-54